Airfield :







YOU CAN JOIN US ON...

 
LOGIN :

Register | Disclaimer

   EN    FR    IT 

 









Legend :    VFR   Marginal VFR   IFR   Intensive IFR   Very Intensive IFR
Visi :
Ceiling :
>= 8 km
>= 3000ft
5 to 8 km
1000 to 3000 ft
1500m to 5 km
500 to 1000 ft
800 to 1500m
200 to 500 ft
< 800m
< 200 ft
Symbols :   Thunderstorms  Fog  Heavy snow  Heavy precipitations  Wind > 20 kt






- Airport Elevation : 59 ft
- IATA code : PBM


SMJP - J.A. Pengel Int.

CURRENT METAR :
  • 121000Z 00000KT 5000 BR FEW003 SCT035 23/23 Q1013 BECMG AT1050 9999 NSW

EXPIRED METARs :
  • 120900Z 27002KT 9999 SCT003 23/23 Q1012 NOSIG

TAF TAF SMJP
Valid from the 12 at 06:00 until the 13 at 06:00 UTC


120400Z 1206/1306 00000KT CAVOK TX32/1218Z TN23/1209Z
PROB30
TEMPO 1209/1210 1500 BR SCT002
BECMG 1211/1213 09008KT SCT020
TEMPO 1218/1221 VRB12G22KT 3000 TSRA SCT015CB SCT018
FM122200 10008KT 9999 SCT020
SMPM FIR / South America



MET'MAP, your aeronautical weather chart ! - Copyright ORBIFLY December 2007 - Disclaimer

ORBIFLY MET'MAP TEAM :

Programming & Development : Alexandra Zaïnal
Concept & original design : Baudouin d'Aumeries
Assistance for programming : Marc-Olivier Méhu
Technical & hardware support : Manuel Goepfert

Contact : metmap@orbifly.com




SOURCES & CREDITS :

   NOAA